Terminal Aerodrome Forecast
Issued by NWS Billings, MT

Home | Current Version | Previous Version | Text Only | Print | Product List | Glossary On
Versions: 1 2 3 4 5 6 7 8 9 10 11 12 13 14 15 16 17 18 19 20 21 22 23 24 25 26 27 28 29 30 31 32 33 34 35 36
000
FTUS45 KBYZ 220524
TAFMLS
TAF
KMLS 220524Z 2206/2306 VRB05KT 2SM BR SCT003 BKN080
     FM220700 VRB05KT 1/2SM FZFG VV003
     FM221800 25006KT P6SM FEW003
     FM230000 VRB04KT P6SM FEW200=

USA.gov is the U.S. government's official web portal to all federal, state and local government web resources and services.